Estación Meteorológica Peña el Pijo (Robertgarden) [ 08/20/17 13:39:47 CEST ]

Fecha Hora Presion(HPa) Temp (°C) Humedad % Rocio (°C) Viento ( m/s) Direccion Lluvia 1Hora(mm) Lluvia 24H(mm) LLuvia Total(mm)
2017-Jun-03 01:01:50 1010.300 15.9 75 11.5         1414.65
2017-Jun-03 02:01:43 1009.900 14.8 79 11.2         1414.65
2017-Jun-03 03:02:23 1009.700 13.9 80 10.5         1414.65
2017-Jun-03 04:02:09 1009.600 13.3 82 10.3         1414.65
2017-Jun-03 05:02:03 1009.400 12.7 84 10.0         1414.65
2017-Jun-03 06:02:11 1009.400 12.4 85 9.9         1414.65
2017-Jun-03 07:01:58 1009.300 12.0 86 9.7         1414.65
2017-Jun-03 08:01:46 1009.700 13.2 88 11.2         1414.65
2017-Jun-03 09:01:42 1009.800 17.2 89 15.4         1414.65
2017-Jun-03 10:01:51 1009.600 23.1 65 16.1         1414.65
2017-Jun-03 11:01:46 1009.500 26.0 54 16.0         1414.65
2017-Jun-03 12:01:44 1009.300 23.8 58 15.0         1414.65
2017-Jun-03 13:01:45 1009.500 23.0 60 14.8         1414.65
2017-Jun-03 14:01:52 1009.300 27.3 50 16.0         1414.65
2017-Jun-03 15:01:30 1009.200 26.3 48 14.4         1414.65
2017-Jun-03 16:01:28 1008.700 29.1 40 14.2 0.6 SSW     1414.65
2017-Jun-03 17:01:36 1008.300 28.3 38 13.0         1414.65
2017-Jun-03 18:01:40 1008.100 27.6 41 13.2         1414.65
2017-Jun-03 19:01:41 1007.700 26.0 42 12.1         1414.65
2017-Jun-03 20:01:43 1007.700 27.9 41 13.4         1414.65
2017-Jun-03 21:01:33 1008.300 23.3 50 12.3         1414.65
2017-Jun-03 22:01:36 1009.000 19.6 59 11.4         1414.65
2017-Jun-03 23:01:28 1009.800 16.3 67 10.2         1414.65

Temperatura Máxima:29°    Temperatura Mínima:12°
Presión Máxima:1010.300 Hpa    Presión Mínima:1007.700 Hpa


Volver